createdAt,value
2018-08-25T00:01:23.958Z,48.68
2018-08-25T00:03:26.232Z,41.33
2018-08-25T00:05:28.470Z,42.43
2018-08-25T00:07:30.754Z,40.75
2018-08-25T00:09:32.994Z,40.20
2018-08-25T00:11:35.227Z,42.43
2018-08-25T00:13:37.530Z,44.25
2018-08-25T00:15:39.984Z,37.85
2018-08-25T00:17:42.280Z,37.40
2018-08-25T00:19:44.520Z,32.10
2018-08-25T00:21:46.778Z,31.07
2018-08-25T00:23:49.022Z,29.45
2018-08-25T00:25:51.282Z,28.83
2018-08-25T00:27:53.536Z,31.00
2018-08-25T00:29:55.780Z,33.33
2018-08-25T00:31:58.050Z,26.27
2018-08-25T00:34:00.300Z,28.42
2018-08-25T00:36:02.559Z,27.27
2018-08-25T00:38:04.844Z,27.32
2018-08-25T00:40:07.084Z,27.42
2018-08-25T00:42:09.326Z,25.40
2018-08-25T00:44:11.596Z,23.57
2018-08-25T00:46:13.835Z,24.87
2018-08-25T00:48:16.129Z,25.72
2018-08-25T00:50:18.376Z,27.95
2018-08-25T00:52:20.606Z,25.75
2018-08-25T00:54:22.922Z,22.75
2018-08-25T00:56:25.138Z,21.55
2018-08-25T00:58:27.382Z,19.92
2018-08-25T01:00:29.652Z,20.62
2018-08-25T01:02:31.915Z,21.17
2018-08-25T01:04:34.176Z,18.50
2018-08-25T01:06:36.448Z,17.75
2018-08-25T01:08:38.684Z,14.65
2018-08-25T01:10:40.962Z,16.15
2018-08-25T01:12:43.200Z,14.93
2018-08-25T01:14:45.475Z,15.43
2018-08-25T01:16:47.760Z,14.50
2018-08-25T01:18:50.006Z,14.30
2018-08-25T01:20:52.275Z,13.60
2018-08-25T01:22:54.516Z,14.43
2018-08-25T01:24:56.801Z,12.47
2018-08-25T01:26:59.122Z,13.70
2018-08-25T01:29:01.368Z,13.78
2018-08-25T01:31:03.602Z,12.23
2018-08-25T01:33:05.882Z,12.05
2018-08-25T01:35:08.134Z,11.48
2018-08-25T01:37:10.441Z,11.00
2018-08-25T01:39:12.686Z,12.00
2018-08-25T01:41:14.951Z,11.18
2018-08-25T01:43:17.206Z,11.00
2018-08-25T01:45:19.442Z,10.45
2018-08-25T01:47:21.724Z,11.12
2018-08-25T01:49:23.960Z,10.28
2018-08-25T01:51:26.255Z,9.08
2018-08-25T01:53:28.501Z,8.63
2018-08-25T01:55:30.717Z,9.20
2018-08-25T01:57:32.980Z,8.55
2018-08-25T01:59:35.228Z,9.33
2018-08-25T02:01:37.507Z,7.92
2018-08-25T02:03:39.742Z,6.83
2018-08-25T02:05:42.014Z,7.85
2018-08-25T02:07:44.287Z,7.92
2018-08-25T02:09:46.529Z,7.17
2018-08-25T02:11:48.767Z,6.95
2018-08-25T02:13:51.084Z,7.37
2018-08-25T02:15:53.303Z,7.92
2018-08-25T02:17:55.529Z,6.67
2018-08-25T02:19:57.827Z,7.17
2018-08-25T02:22:00.103Z,6.70
2018-08-25T02:24:02.365Z,6.15
2018-08-25T02:26:04.641Z,6.92
2018-08-25T02:28:06.942Z,7.47
2018-08-25T02:30:09.185Z,5.95
2018-08-25T02:32:11.435Z,6.30
2018-08-25T02:34:13.699Z,5.15
2018-08-25T02:36:15.924Z,5.45
2018-08-25T02:38:18.165Z,4.85
2018-08-25T02:40:20.423Z,5.40
2018-08-25T02:42:22.657Z,6.08
2018-08-25T02:44:24.917Z,4.03
2018-08-25T02:46:27.167Z,4.25
2018-08-25T02:48:29.437Z,4.85
2018-08-25T02:50:31.730Z,4.85
2018-08-25T02:52:33.971Z,4.35
2018-08-25T02:54:36.255Z,3.60
2018-08-25T02:56:38.488Z,4.22
2018-08-25T02:58:40.731Z,3.62
2018-08-25T03:00:43.026Z,5.08
2018-08-25T03:02:45.271Z,4.62
2018-08-25T03:04:47.502Z,6.05
2018-08-25T03:06:49.779Z,2.98
2018-08-25T03:08:52.077Z,3.17
2018-08-25T03:10:54.301Z,3.35
2018-08-25T03:12:56.549Z,5.20
2018-08-25T03:14:58.816Z,4.97
2018-08-25T03:17:01.090Z,11.75
2018-08-25T03:19:03.337Z,3.70
2018-08-25T03:21:05.612Z,3.33
2018-08-25T03:23:07.863Z,4.05
2018-08-25T03:25:10.119Z,3.70
2018-08-25T03:27:12.351Z,2.62
2018-08-25T03:29:14.595Z,3.98
2018-08-25T03:31:16.836Z,2.67
2018-08-25T03:33:19.104Z,4.10
2018-08-25T03:35:21.359Z,4.62
2018-08-25T03:37:23.601Z,3.42
2018-08-25T03:39:25.876Z,3.77
2018-08-25T03:41:28.099Z,4.45
2018-08-25T03:43:30.393Z,4.00
2018-08-25T03:45:32.811Z,3.40
2018-08-25T03:47:35.037Z,3.52
2018-08-25T03:49:37.277Z,3.67
2018-08-25T03:51:39.537Z,3.65
2018-08-25T03:53:41.803Z,3.02
2018-08-25T03:55:44.069Z,4.25
2018-08-25T03:57:46.386Z,2.45
2018-08-25T03:59:48.671Z,2.60
2018-08-25T04:01:50.903Z,4.40
2018-08-25T04:03:53.137Z,2.92
2018-08-25T04:05:55.418Z,2.65
2018-08-25T04:07:57.665Z,3.52
2018-08-25T04:09:59.885Z,3.20
2018-08-25T04:12:02.157Z,3.10
2018-08-25T04:14:04.397Z,3.50
2018-08-25T04:16:06.665Z,4.35
2018-08-25T04:18:08.911Z,3.00
2018-08-25T04:20:11.198Z,4.30
2018-08-25T04:22:13.497Z,2.90
2018-08-25T04:24:15.739Z,3.15
2018-08-25T04:26:17.971Z,4.80
2018-08-25T04:28:20.250Z,3.20
2018-08-25T04:30:22.495Z,3.37
2018-08-25T04:32:24.763Z,2.90
2018-08-25T04:34:27.029Z,3.58
2018-08-25T04:36:29.261Z,3.02
2018-08-25T04:38:31.535Z,1.95
2018-08-25T04:40:33.794Z,2.22
2018-08-25T04:42:36.027Z,1.62
2018-08-25T04:44:38.295Z,3.60
2018-08-25T04:46:40.535Z,2.45
2018-08-25T04:48:42.826Z,3.92
2018-08-25T04:50:45.061Z,3.85
2018-08-25T04:52:47.331Z,2.45
2018-08-25T04:54:49.578Z,2.70
2018-08-25T04:56:51.817Z,3.47
2018-08-25T04:58:54.089Z,3.20
2018-08-25T05:00:56.361Z,5.35
2018-08-25T05:02:58.599Z,3.17
2018-08-25T05:05:00.837Z,5.58
2018-08-25T05:07:03.115Z,3.35
2018-08-25T05:09:05.348Z,4.03
2018-08-25T05:11:07.608Z,3.35
2018-08-25T05:13:09.840Z,7.25
2018-08-25T05:15:12.103Z,2.33
2018-08-25T05:17:14.342Z,3.83
2018-08-25T05:19:16.568Z,3.22
2018-08-25T05:21:18.845Z,2.50
2018-08-25T05:23:21.124Z,2.30
2018-08-25T05:25:23.348Z,4.70
2018-08-25T05:27:25.670Z,14.13
2018-08-25T05:29:27.940Z,389.20
2018-08-25T05:31:30.194Z,41.20
2018-08-25T05:33:32.647Z,45.12
2018-08-25T05:35:34.934Z,60.17
2018-08-25T05:37:37.181Z,96.78
2018-08-25T05:39:39.456Z,62.60
2018-08-25T05:41:41.714Z,15.23
2018-08-25T05:43:43.939Z,11.65
2018-08-25T05:45:46.211Z,6.30
2018-08-25T05:47:48.462Z,69.77
2018-08-25T05:49:50.693Z,60.40
2018-08-25T05:51:52.976Z,32.65
2018-08-25T05:53:55.256Z,11.38
2018-08-25T05:55:57.523Z,12.63
2018-08-25T05:57:59.811Z,28.32
2018-08-25T06:00:02.053Z,42.13
2018-08-25T06:02:04.353Z,41.13
2018-08-25T06:04:06.615Z,14.25
2018-08-25T06:06:08.891Z,7.30
2018-08-25T06:08:11.165Z,19.92
2018-08-25T06:10:13.435Z,49.00
2018-08-25T06:12:15.667Z,54.90
2018-08-25T06:14:17.965Z,16.48
2018-08-25T06:16:20.210Z,7.50
2018-08-25T06:18:22.477Z,9.50
2018-08-25T06:20:24.719Z,72.70
2018-08-25T06:22:27.003Z,87.40
2018-08-25T06:24:29.303Z,54.42
2018-08-25T06:26:31.603Z,53.52
2018-08-25T06:28:33.898Z,14.95
2018-08-25T06:30:36.133Z,10.88
2018-08-25T06:32:38.435Z,8.90
2018-08-25T06:34:40.670Z,32.38
2018-08-25T06:36:42.966Z,359.83
2018-08-25T06:38:45.213Z,290.32
2018-08-25T06:40:47.496Z,161.22
2018-08-25T06:42:49.792Z,26.02
2018-08-25T06:44:52.037Z,14.60
2018-08-25T06:46:54.324Z,6.35
2018-08-25T06:48:56.584Z,6.55
2018-08-25T06:50:58.870Z,5.80
2018-08-25T06:53:01.136Z,30.00
2018-08-25T06:55:03.385Z,232.03
2018-08-25T06:57:05.683Z,89.97
2018-08-25T06:59:07.948Z,22.48
2018-08-25T07:01:10.204Z,12.98
2018-08-25T07:03:12.492Z,6.65
2018-08-25T07:05:14.720Z,6.25
2018-08-25T07:07:16.982Z,36.75
2018-08-25T07:09:19.275Z,87.80
2018-08-25T07:11:21.518Z,62.20
2018-08-25T07:13:23.951Z,28.23
2018-08-25T07:15:26.196Z,6.42
2018-08-25T07:17:28.473Z,5.08
2018-08-25T07:19:30.753Z,19.70
2018-08-25T07:21:32.988Z,76.53
2018-08-25T07:23:35.277Z,60.90
2018-08-25T07:25:37.525Z,34.98
2018-08-25T07:27:39.796Z,16.65
2018-08-25T07:29:42.082Z,8.45
2018-08-25T07:31:44.356Z,60.58
2018-08-25T07:33:46.655Z,56.77
2018-08-25T07:35:48.903Z,29.30
2018-08-25T07:37:51.152Z,12.00
2018-08-25T07:39:53.438Z,71.77
2018-08-25T07:41:55.702Z,88.58
2018-08-25T07:43:57.980Z,17.82
2018-08-25T07:46:00.217Z,8.65
2018-08-25T07:48:02.491Z,13.48
2018-08-25T07:50:04.745Z,6.15
2018-08-25T07:52:07.000Z,4.65
2018-08-25T07:54:09.268Z,4.83
2018-08-25T07:56:11.508Z,6.10
2018-08-25T07:58:13.784Z,3.08
2018-08-25T08:00:16.074Z,6.35
2018-08-25T08:02:18.302Z,58.10
2018-08-25T08:04:20.602Z,156.80
2018-08-25T08:06:22.892Z,154.32
2018-08-25T08:08:25.153Z,62.53
2018-08-25T08:10:27.436Z,47.73
2018-08-25T08:12:29.731Z,18.15
2018-08-25T08:14:31.971Z,16.17
2018-08-25T08:16:34.238Z,106.75
2018-08-25T08:18:36.542Z,65.62
2018-08-25T08:20:38.774Z,40.75
2018-08-25T08:22:41.020Z,18.02
2018-08-25T08:24:43.330Z,12.45
2018-08-25T08:26:45.561Z,12.15
2018-08-25T08:28:47.804Z,7.12
2018-08-25T08:30:50.091Z,589.63
2018-08-25T08:32:52.383Z,193.87
2018-08-25T08:34:54.764Z,49.85
2018-08-25T08:36:57.011Z,18.20
2018-08-25T08:38:59.251Z,12.68
2018-08-25T08:41:01.533Z,9.38
2018-08-25T08:43:03.833Z,5.37
2018-08-25T08:45:06.046Z,3.72
2018-08-25T08:47:08.297Z,265.82
2018-08-25T08:49:10.565Z,256.00
2018-08-25T08:51:12.831Z,62.73
2018-08-25T08:53:15.113Z,30.00
2018-08-25T08:55:17.359Z,19.23
2018-08-25T08:57:19.653Z,18.17
2018-08-25T08:59:21.925Z,7.80
2018-08-25T09:01:24.231Z,6.40
2018-08-25T09:03:26.497Z,4.37
2018-08-25T09:05:29.309Z,43.05
2018-08-25T09:07:31.557Z,70.87
2018-08-25T09:09:33.801Z,28.02
2018-08-25T09:11:36.199Z,10.58
2018-08-25T09:13:38.323Z,6.28
2018-08-25T09:15:40.616Z,3.60
2018-08-25T09:17:42.879Z,2.90
2018-08-25T09:19:45.113Z,2.40
2018-08-25T09:21:47.396Z,3.92
2018-08-25T09:23:49.641Z,109.52
2018-08-25T09:25:51.921Z,203.30
2018-08-25T09:27:54.170Z,343.67
2018-08-25T09:29:56.437Z,47.62
2018-08-25T09:31:58.667Z,14.23
2018-08-25T09:34:00.959Z,10.48
2018-08-25T09:36:03.272Z,6.42
2018-08-25T09:38:05.480Z,5.25
2018-08-25T09:40:07.769Z,4.20
2018-08-25T09:42:10.049Z,3.40
2018-08-25T09:44:12.341Z,3.87
2018-08-25T09:46:14.616Z,4.90
2018-08-25T09:48:16.897Z,3.08
2018-08-25T09:50:19.128Z,2.22
2018-08-25T09:52:21.361Z,2.62
2018-08-25T09:54:23.659Z,2.42
2018-08-25T09:56:25.952Z,2.00
2018-08-25T09:58:28.177Z,1.70
2018-08-25T10:00:30.432Z,275.87
2018-08-25T10:02:32.676Z,89.42
2018-08-25T10:04:34.938Z,53.85
2018-08-25T10:06:37.225Z,30.08
2018-08-25T10:08:39.467Z,19.17
2018-08-25T10:10:41.718Z,11.57
2018-08-25T10:12:44.016Z,29.75
2018-08-25T10:14:46.246Z,33.42
2018-08-25T10:16:48.569Z,25.17
2018-08-25T10:18:50.785Z,8.55
2018-08-25T10:20:53.041Z,9.90
2018-08-25T10:22:55.282Z,220.35
2018-08-25T10:24:57.577Z,197.35
2018-08-25T10:26:59.868Z,78.52
2018-08-25T10:29:02.181Z,58.98
2018-08-25T10:31:04.403Z,27.02
2018-08-25T10:33:06.699Z,16.75
2018-08-25T10:35:08.960Z,7.83
2018-08-25T10:37:11.220Z,4.92
2018-08-25T10:39:13.485Z,3.05
2018-08-25T10:41:15.715Z,3.12
2018-08-25T10:43:17.989Z,2.75
2018-08-25T10:45:20.223Z,2.00
2018-08-25T10:47:22.507Z,1.40
2018-08-25T10:49:24.755Z,1.40
2018-08-25T10:51:26.992Z,1.82
2018-08-25T10:53:29.262Z,1.67
2018-08-25T10:55:31.495Z,1.90
2018-08-25T10:57:33.774Z,1.32
2018-08-25T10:59:36.059Z,0.72
2018-08-25T11:01:38.348Z,0.75
2018-08-25T11:03:40.641Z,1.02
2018-08-25T11:05:42.906Z,1.32
2018-08-25T11:07:45.264Z,129.38
2018-08-25T11:09:47.533Z,204.23
2018-08-25T11:11:49.790Z,123.97
2018-08-25T11:13:52.069Z,122.72
2018-08-25T11:15:54.318Z,112.52
2018-08-25T11:17:56.560Z,110.45
2018-08-25T11:19:58.871Z,110.78
2018-08-25T11:22:01.169Z,89.15
2018-08-25T11:24:03.418Z,95.62
2018-08-25T11:26:05.669Z,82.78
2018-08-25T11:28:07.914Z,70.97
2018-08-25T11:30:10.209Z,63.52
2018-08-25T11:32:12.446Z,55.98
2018-08-25T11:34:14.754Z,56.68
2018-08-25T11:36:17.000Z,40.23
2018-08-25T11:38:19.238Z,57.15
2018-08-25T11:40:21.522Z,33.45
2018-08-25T11:42:23.758Z,25.08
2018-08-25T11:44:26.069Z,29.50
2018-08-25T11:46:28.318Z,29.57
2018-08-25T11:48:30.640Z,28.12
2018-08-25T11:50:32.870Z,23.60
2018-08-25T11:52:35.110Z,25.45
2018-08-25T11:54:37.392Z,21.17
2018-08-25T11:56:39.675Z,29.07
2018-08-25T11:58:41.982Z,16.52
2018-08-25T12:00:44.219Z,12.37
2018-08-25T12:02:46.478Z,13.48
2018-08-25T12:04:48.754Z,126.85
2018-08-25T12:06:51.012Z,82.53
2018-08-25T12:08:53.264Z,69.20
2018-08-25T12:10:55.536Z,64.47
2018-08-25T12:12:57.856Z,66.42
2018-08-25T12:15:00.138Z,30.12
2018-08-25T12:17:02.388Z,20.23
2018-08-25T12:19:04.660Z,11.50
2018-08-25T12:21:07.828Z,13.32
2018-08-25T12:23:10.108Z,13.98
2018-08-25T12:25:12.343Z,33.08
2018-08-25T12:27:14.632Z,122.72
2018-08-25T12:29:16.945Z,49.40
2018-08-25T12:31:19.236Z,50.17
2018-08-25T12:33:21.566Z,32.42
2018-08-25T12:35:23.765Z,26.62
2018-08-25T12:37:26.036Z,25.88
2018-08-25T12:39:28.315Z,18.67
2018-08-25T12:41:30.528Z,10.75
2018-08-25T12:43:32.895Z,6.65
2018-08-25T12:45:35.052Z,6.90
2018-08-25T12:47:37.322Z,6.90
2018-08-25T12:49:40.014Z,5.17
2018-08-25T12:51:42.256Z,3.22
2018-08-25T12:53:44.462Z,9.15
2018-08-25T12:55:46.749Z,323.68
2018-08-25T12:57:49.430Z,121.90
2018-08-25T12:59:51.712Z,55.15
2018-08-25T13:01:54.005Z,38.88
2018-08-25T13:03:56.252Z,72.60
2018-08-25T13:05:58.545Z,88.50
2018-08-25T13:08:00.823Z,39.98
2018-08-25T13:10:03.130Z,21.57
2018-08-25T13:12:05.388Z,18.67
2018-08-25T13:14:07.668Z,13.40
2018-08-25T13:16:09.923Z,13.65
2018-08-25T13:18:12.202Z,9.28
2018-08-25T13:20:14.455Z,7.15
2018-08-25T13:22:16.754Z,5.47
2018-08-25T13:24:19.052Z,3.40
2018-08-25T13:26:21.284Z,3.92
2018-08-25T13:28:23.508Z,3.65
2018-08-25T13:30:25.774Z,3.37
2018-08-25T13:32:28.049Z,2.58
2018-08-25T13:34:30.293Z,1.95
2018-08-25T13:36:32.565Z,2.77
2018-08-25T13:38:34.858Z,2.62
2018-08-25T13:40:37.133Z,2.47
2018-08-25T13:42:39.900Z,2.47
2018-08-25T13:44:42.111Z,2.83
2018-08-25T13:46:44.361Z,1.70
2018-08-25T13:48:46.649Z,7.42
2018-08-25T13:50:48.895Z,36.50
2018-08-25T13:52:51.212Z,18.42
2018-08-25T13:54:53.436Z,92.42
2018-08-25T13:56:55.683Z,44.38
2018-08-25T13:58:57.968Z,31.12
2018-08-25T14:01:00.232Z,27.35
2018-08-25T14:03:02.483Z,21.73
2018-08-25T14:05:04.757Z,14.23
2018-08-25T14:07:07.013Z,9.60
2018-08-25T14:09:09.256Z,6.25
2018-08-25T14:11:11.525Z,8.23
2018-08-25T14:13:13.766Z,10.15
2018-08-25T14:15:16.060Z,7.53
2018-08-25T14:17:18.320Z,8.28
2018-08-25T14:19:20.769Z,8.23
2018-08-25T14:21:23.018Z,6.45
2018-08-25T14:23:25.292Z,5.12
2018-08-25T14:25:27.531Z,5.17
2018-08-25T14:27:29.824Z,5.17
2018-08-25T14:29:32.072Z,4.60
2018-08-25T14:31:34.338Z,3.60
2018-08-25T14:33:36.602Z,29.87
2018-08-25T14:35:38.895Z,52.62
2018-08-25T14:37:41.132Z,259.52
2018-08-25T14:39:43.436Z,126.97
2018-08-25T14:41:45.743Z,85.07
2018-08-25T14:43:47.918Z,56.77
2018-08-25T14:45:50.208Z,48.45
2018-08-25T14:47:52.458Z,56.73
2018-08-25T14:49:54.760Z,38.75
2018-08-25T14:51:57.037Z,26.07
2018-08-25T14:53:59.282Z,30.40
2018-08-25T14:56:01.561Z,54.50
2018-08-25T14:58:03.805Z,94.62
2018-08-25T15:00:06.092Z,95.12
2018-08-25T15:02:08.338Z,125.38
2018-08-25T15:04:10.633Z,152.62
2018-08-25T15:06:12.940Z,173.05
2018-08-25T15:08:15.193Z,126.90
2018-08-25T15:10:17.437Z,98.17
2018-08-25T15:12:19.740Z,100.87
2018-08-25T15:14:21.986Z,71.65
2018-08-25T15:16:24.283Z,75.25
2018-08-25T15:18:26.581Z,88.03
2018-08-25T15:20:28.836Z,144.60
2018-08-25T15:22:31.088Z,241.33
2018-08-25T15:24:33.391Z,365.60
2018-08-25T15:26:35.640Z,206.25
2018-08-25T15:28:37.903Z,299.00
2018-08-25T15:30:40.191Z,115.80
2018-08-25T15:32:42.476Z,127.07
2018-08-25T15:34:44.743Z,61.77
2018-08-25T15:36:47.067Z,38.23
2018-08-25T15:38:49.801Z,11.48
2018-08-25T15:40:52.065Z,13.70
2018-08-25T15:42:54.354Z,6.37
2018-08-25T15:44:56.625Z,2.58
2018-08-25T15:46:58.857Z,4.45
2018-08-25T15:49:01.160Z,4.50
2018-08-25T15:51:03.395Z,3.70
2018-08-25T15:53:05.649Z,189.45
2018-08-25T15:55:07.944Z,152.62
2018-08-25T15:57:10.210Z,93.55
2018-08-25T15:59:12.457Z,298.45
2018-08-25T16:01:14.715Z,451.27
2018-08-25T16:03:16.990Z,126.47
2018-08-25T16:05:19.272Z,32.28
2018-08-25T16:07:21.521Z,18.62
2018-08-25T16:09:23.796Z,10.18
2018-08-25T16:11:26.062Z,7.15
2018-08-25T16:13:28.319Z,3.10
2018-08-25T16:15:30.594Z,3.92
2018-08-25T16:17:32.845Z,2.35
2018-08-25T16:19:35.140Z,2.42
2018-08-25T16:21:37.355Z,1.60
2018-08-25T16:23:39.643Z,2.10
2018-08-25T16:25:41.880Z,383.57
2018-08-25T16:27:44.125Z,603.02
2018-08-25T16:29:46.423Z,129.30
2018-08-25T16:31:48.692Z,75.30
2018-08-25T16:33:50.973Z,34.23
2018-08-25T16:35:53.268Z,23.15
2018-08-25T16:37:55.515Z,16.20
2018-08-25T16:39:57.803Z,11.22
2018-08-25T16:42:00.063Z,5.90
2018-08-25T16:44:02.333Z,5.20
2018-08-25T16:46:04.556Z,6.90
2018-08-25T16:48:06.843Z,4.83
2018-08-25T16:50:09.083Z,9.10
2018-08-25T16:52:11.369Z,14.75
2018-08-25T16:54:13.616Z,10.68
2018-08-25T16:56:15.849Z,10.45
2018-08-25T16:58:18.157Z,5.25
2018-08-25T17:00:20.423Z,6.83
2018-08-25T17:02:22.678Z,4.90
2018-08-25T17:04:24.914Z,4.85
2018-08-25T17:06:27.189Z,3.27
2018-08-25T17:08:29.435Z,2.02
2018-08-25T17:10:31.697Z,2.10
2018-08-25T17:12:33.940Z,3.12
2018-08-25T17:14:36.203Z,1.25
2018-08-25T17:16:38.484Z,0.82
2018-08-25T17:18:40.728Z,3.12
2018-08-25T17:20:43.004Z,1.87
2018-08-25T17:22:45.256Z,2.37
2018-08-25T17:24:47.466Z,1.57
2018-08-25T17:26:49.765Z,1.27
2018-08-25T17:28:52.034Z,1.90
2018-08-25T17:30:54.281Z,0.90
2018-08-25T17:32:56.558Z,2.17
2018-08-25T17:34:58.808Z,13.53
2018-08-25T17:37:01.034Z,766.70
2018-08-25T17:39:03.327Z,221.30
2018-08-25T17:41:05.598Z,52.85
2018-08-25T17:43:07.870Z,21.85
2018-08-25T17:45:10.191Z,14.65
2018-08-25T17:47:12.396Z,10.80
2018-08-25T17:49:14.646Z,8.25
2018-08-25T17:51:16.875Z,5.15
2018-08-25T17:53:19.148Z,4.92
2018-08-25T17:55:21.412Z,2.75
2018-08-25T17:57:23.791Z,1.62
2018-08-25T17:59:25.959Z,1.70
2018-08-25T18:01:28.229Z,2.65
2018-08-25T18:03:30.471Z,1.52
2018-08-25T18:05:32.785Z,1.70
2018-08-25T18:07:35.036Z,73.10
2018-08-25T18:09:37.302Z,166.25
2018-08-25T18:11:39.586Z,234.57
2018-08-25T18:13:41.887Z,188.57
2018-08-25T18:15:44.140Z,199.20
2018-08-25T18:17:46.452Z,176.05
2018-08-25T18:19:48.716Z,152.25
2018-08-25T18:21:51.034Z,151.50
2018-08-25T18:23:53.330Z,142.45
2018-08-25T18:25:55.593Z,263.30
2018-08-25T18:27:57.894Z,435.97
2018-08-25T18:30:00.170Z,708.92
2018-08-25T18:32:02.465Z,683.42
2018-08-25T18:34:04.705Z,637.55
2018-08-25T18:36:06.950Z,621.65
2018-08-25T18:38:09.244Z,600.38
2018-08-25T18:40:11.525Z,558.53
2018-08-25T18:42:13.876Z,543.48
2018-08-25T18:44:16.107Z,505.45
2018-08-25T18:46:18.334Z,485.75
2018-08-25T18:48:20.629Z,492.00
2018-08-25T18:50:22.880Z,509.45
2018-08-25T18:52:25.191Z,566.50
2018-08-25T18:54:27.567Z,605.77
2018-08-25T18:56:30.128Z,672.13
2018-08-25T18:58:32.408Z,694.90
2018-08-25T19:00:34.692Z,642.37
2018-08-25T19:02:36.980Z,637.25
2018-08-25T19:04:39.236Z,601.30
2018-08-25T19:06:41.584Z,574.38
2018-08-25T19:08:43.856Z,567.35
2018-08-25T19:10:46.070Z,547.17
2018-08-25T19:12:48.390Z,540.08
2018-08-25T19:14:50.637Z,515.28
2018-08-25T19:16:52.938Z,491.55
2018-08-25T19:18:55.212Z,489.10
2018-08-25T19:20:57.472Z,469.43
2018-08-25T19:22:59.747Z,470.38
2018-08-25T19:25:02.052Z,439.00
2018-08-25T19:27:04.360Z,462.38
2018-08-25T19:29:06.640Z,542.60
2018-08-25T19:31:08.910Z,659.00
2018-08-25T19:33:11.173Z,714.83
2018-08-25T19:35:13.410Z,717.45
2018-08-25T19:37:15.700Z,552.02
2018-08-25T19:39:18.009Z,494.95
2018-08-25T19:41:20.353Z,594.47
2018-08-25T19:43:22.562Z,518.67
2018-08-25T19:45:24.864Z,471.93
2018-08-25T19:47:27.100Z,486.50
2018-08-25T19:49:29.396Z,529.08
2018-08-25T19:51:31.698Z,570.00
2018-08-25T19:53:33.976Z,453.23
2018-08-25T19:55:36.253Z,441.10
2018-08-25T19:57:38.564Z,533.35
2018-08-25T19:59:40.885Z,553.02
2018-08-25T20:01:43.116Z,514.80
2018-08-25T20:03:45.366Z,472.85
2018-08-25T20:05:47.724Z,498.88
2018-08-25T20:07:49.917Z,494.58
2018-08-25T20:09:52.197Z,644.45
2018-08-25T20:11:54.488Z,695.27
2018-08-25T20:13:56.812Z,665.58
2018-08-25T20:15:59.068Z,680.52
2018-08-25T20:18:01.359Z,648.80
2018-08-25T20:20:03.645Z,635.10
2018-08-25T20:22:05.921Z,618.45
2018-08-25T20:24:08.199Z,544.90
2018-08-25T20:26:10.511Z,609.22
2018-08-25T20:28:12.793Z,677.52
2018-08-25T20:30:15.153Z,684.75
2018-08-25T20:32:17.349Z,760.73
2018-08-25T20:34:19.664Z,709.85
2018-08-25T20:36:21.972Z,815.42
2018-08-25T20:38:24.239Z,810.62
2018-08-25T20:40:26.539Z,797.80
2018-08-25T20:42:28.810Z,759.95
2018-08-25T20:44:31.071Z,730.00
2018-08-25T20:46:33.364Z,709.73
2018-08-25T20:48:35.630Z,688.42
2018-08-25T20:50:37.906Z,670.92
2018-08-25T20:52:40.186Z,656.87
2018-08-25T20:54:42.435Z,631.95
2018-08-25T20:56:44.725Z,616.15
2018-08-25T20:58:47.029Z,613.45
2018-08-25T21:00:49.308Z,619.83
2018-08-25T21:02:51.541Z,605.80
2018-08-25T21:04:53.824Z,602.10
2018-08-25T21:06:56.088Z,599.02
2018-08-25T21:08:58.470Z,581.83
2018-08-25T21:11:00.720Z,692.83
2018-08-25T21:13:02.973Z,859.45
2018-08-25T21:15:05.529Z,820.23
2018-08-25T21:17:08.062Z,770.30
2018-08-25T21:19:10.365Z,736.17
2018-08-25T21:21:12.646Z,697.83
2018-08-25T21:23:14.891Z,710.05
2018-08-25T21:25:17.995Z,815.83
2018-08-25T21:27:20.457Z,906.02
2018-08-25T21:29:22.748Z,829.35
2018-08-25T21:31:24.994Z,840.75
2018-08-25T21:33:27.245Z,825.30
2018-08-25T21:35:29.565Z,786.67
2018-08-25T21:37:31.815Z,770.62
2018-08-25T21:39:34.105Z,751.52
2018-08-25T21:41:36.417Z,750.22
2018-08-25T21:43:38.716Z,741.55
2018-08-25T21:45:41.043Z,721.15
2018-08-25T21:47:43.327Z,710.75
2018-08-25T21:49:45.597Z,696.90
2018-08-25T21:51:47.913Z,709.55
2018-08-25T21:53:50.160Z,685.87
2018-08-25T21:55:52.450Z,682.85
2018-08-25T21:57:54.761Z,680.37
2018-08-25T21:59:57.034Z,677.75
2018-08-25T22:01:59.318Z,672.73
2018-08-25T22:04:01.596Z,662.90
2018-08-25T22:06:03.860Z,663.95
2018-08-25T22:08:06.163Z,684.73
2018-08-25T22:10:08.470Z,830.38
2018-08-25T22:12:10.734Z,814.67
2018-08-25T22:14:13.033Z,833.33
2018-08-25T22:16:15.288Z,820.45
2018-08-25T22:18:17.602Z,798.62
2018-08-25T22:20:19.869Z,782.33
2018-08-25T22:22:22.172Z,768.33
2018-08-25T22:24:24.423Z,766.77
2018-08-25T22:26:26.745Z,769.85
2018-08-25T22:28:29.048Z,756.58
2018-08-25T22:30:31.350Z,744.37
2018-08-25T22:32:33.655Z,707.95
2018-08-25T22:34:35.910Z,719.02
2018-08-25T22:36:38.179Z,717.40
2018-08-25T22:38:40.495Z,701.50
2018-08-25T22:40:42.764Z,703.48
2018-08-25T22:42:45.012Z,690.55
2018-08-25T22:44:47.317Z,705.22
2018-08-25T22:46:49.633Z,675.08
2018-08-25T22:48:51.924Z,678.42
2018-08-25T22:50:54.177Z,678.08
2018-08-25T22:52:56.523Z,674.30
2018-08-25T22:54:58.855Z,668.15
2018-08-25T22:57:01.160Z,648.20
2018-08-25T22:59:03.430Z,640.52
2018-08-25T23:01:05.713Z,639.25
2018-08-25T23:03:08.025Z,618.97
2018-08-25T23:05:10.288Z,631.97
2018-08-25T23:07:12.567Z,623.10
2018-08-25T23:09:14.854Z,613.22
2018-08-25T23:11:17.127Z,609.95
2018-08-25T23:13:19.414Z,613.72
2018-08-25T23:15:21.704Z,603.17
2018-08-25T23:17:24.089Z,629.02
2018-08-25T23:19:26.290Z,592.27
2018-08-25T23:21:28.582Z,594.15
2018-08-25T23:23:30.889Z,595.77
2018-08-25T23:25:33.181Z,586.75
2018-08-25T23:27:35.446Z,599.27
2018-08-25T23:29:37.732Z,592.35
2018-08-25T23:31:40.033Z,573.20
2018-08-25T23:33:42.290Z,571.17
2018-08-25T23:35:44.660Z,587.88
2018-08-25T23:37:46.929Z,589.30
2018-08-25T23:39:49.208Z,581.70
2018-08-25T23:41:51.508Z,546.80
2018-08-25T23:43:53.784Z,557.73
2018-08-25T23:45:56.089Z,560.02
2018-08-25T23:47:58.437Z,571.37
2018-08-25T23:50:00.669Z,531.37
2018-08-25T23:52:02.955Z,555.30
2018-08-25T23:54:05.223Z,550.15
2018-08-25T23:56:07.519Z,561.95
2018-08-25T23:58:09.770Z,527.23
